createdAt,value
2022-08-08T00:00:50.102Z,90.80
2022-08-08T00:03:32.968Z,91.00
2022-08-08T00:06:07.781Z,91.80
2022-08-08T00:09:03.646Z,91.20
2022-08-08T00:12:03.292Z,91.50
2022-08-08T00:14:54.935Z,91.50
2022-08-08T00:17:58.417Z,99.90
2022-08-08T00:20:43.016Z,92.40
2022-08-08T00:23:28.498Z,92.00
2022-08-08T00:26:26.223Z,92.50
2022-08-08T00:29:09.042Z,92.50
2022-08-08T00:32:28.791Z,92.10
2022-08-08T00:35:20.118Z,99.90
2022-08-08T00:38:01.952Z,92.80
2022-08-08T00:41:11.042Z,92.80
2022-08-08T00:43:45.843Z,92.80
2022-08-08T00:46:57.887Z,92.80
2022-08-08T00:49:50.345Z,93.10
2022-08-08T00:52:29.198Z,93.30
2022-08-08T00:55:36.149Z,92.80
2022-08-08T00:58:13.559Z,99.90
2022-08-08T01:01:00.155Z,93.30
2022-08-08T01:04:04.898Z,93.50
2022-08-08T01:07:09.695Z,93.70
2022-08-08T01:10:06.226Z,94.00
2022-08-08T01:13:15.936Z,93.40
2022-08-08T01:15:59.671Z,93.90
2022-08-08T01:18:53.356Z,93.30
2022-08-08T01:21:35.115Z,93.60
2022-08-08T01:24:28.922Z,93.40
2022-08-08T01:27:21.252Z,94.40
2022-08-08T01:30:39.494Z,93.90
2022-08-08T01:33:23.755Z,95.00
2022-08-08T01:36:12.219Z,94.70
2022-08-08T01:39:08.583Z,94.10
2022-08-08T01:42:36.095Z,94.30
2022-08-08T01:45:30.863Z,95.00
2022-08-08T01:48:30.513Z,94.60
2022-08-08T01:51:00.033Z,94.70
2022-08-08T01:55:25.815Z,94.90
2022-08-08T01:58:03.982Z,94.80
2022-08-08T02:00:40.326Z,94.80
2022-08-08T02:03:55.571Z,95.20
2022-08-08T02:06:41.013Z,94.60
2022-08-08T02:10:02.163Z,95.00
2022-08-08T02:12:57.295Z,95.30
2022-08-08T02:15:52.621Z,95.50
2022-08-08T02:18:44.101Z,95.20
2022-08-08T02:21:39.614Z,95.20
2022-08-08T02:24:23.782Z,95.60
2022-08-08T02:26:58.181Z,95.40
2022-08-08T02:30:03.884Z,96.00
2022-08-08T02:32:44.623Z,95.80
2022-08-08T02:36:04.162Z,95.60
2022-08-08T02:38:56.067Z,95.70
2022-08-08T02:41:58.866Z,95.90
2022-08-08T02:44:57.252Z,95.60
2022-08-08T02:47:59.378Z,95.90
2022-08-08T02:51:00.845Z,96.20
2022-08-08T02:53:39.148Z,96.10
2022-08-08T02:56:09.321Z,95.70
2022-08-08T02:59:03.268Z,95.70
2022-08-08T03:02:05.953Z,96.10
2022-08-08T03:05:10.602Z,95.80
2022-08-08T03:08:13.494Z,95.90
2022-08-08T03:11:13.933Z,96.10
2022-08-08T03:15:58.741Z,96.30
2022-08-08T03:17:11.275Z,96.10
2022-08-08T03:20:08.280Z,96.60
2022-08-08T03:23:00.386Z,96.40
2022-08-08T03:25:35.615Z,97.60
2022-08-08T03:28:10.273Z,96.90
2022-08-08T03:30:48.874Z,97.00
2022-08-08T03:33:55.568Z,97.20
2022-08-08T03:36:13.471Z,97.00
2022-08-08T03:38:55.787Z,97.60
2022-08-08T03:42:28.597Z,97.50
2022-08-08T03:44:34.689Z,97.70
2022-08-08T03:47:19.166Z,96.90
2022-08-08T03:50:00.336Z,97.50
2022-08-08T03:52:35.219Z,97.80
2022-08-08T03:55:54.790Z,97.60
2022-08-08T03:58:35.138Z,97.90
2022-08-08T04:01:20.798Z,97.80
2022-08-08T04:03:57.222Z,98.10
2022-08-08T04:06:30.338Z,99.00
2022-08-08T04:09:10.741Z,98.50
2022-08-08T04:11:59.069Z,99.10
2022-08-08T04:14:50.702Z,98.50
2022-08-08T04:17:45.647Z,98.50
2022-08-08T04:20:08.072Z,98.60
2022-08-08T04:22:36.024Z,99.20
2022-08-08T04:25:05.987Z,98.70
2022-08-08T04:28:02.977Z,98.60
2022-08-08T04:30:24.340Z,98.80
2022-08-08T04:32:53.795Z,98.70
2022-08-08T04:35:25.187Z,98.80
2022-08-08T04:37:57.368Z,98.90
2022-08-08T04:40:32.522Z,98.80
2022-08-08T04:43:03.503Z,98.80
2022-08-08T04:45:37.681Z,99.00
2022-08-08T04:48:06.472Z,98.80
2022-08-08T04:50:38.949Z,99.30
2022-08-08T04:54:36.589Z,98.90
2022-08-08T04:56:08.476Z,99.00
2022-08-08T04:58:36.670Z,99.00
2022-08-08T05:01:10.503Z,99.10
2022-08-08T05:04:09.493Z,99.10
2022-08-08T05:06:30.702Z,99.10
2022-08-08T05:09:02.436Z,99.20
2022-08-08T05:11:38.662Z,99.30
2022-08-08T05:14:07.242Z,99.30
2022-08-08T05:16:51.534Z,99.30
2022-08-08T05:20:11.095Z,99.40
2022-08-08T05:22:12.342Z,99.40
2022-08-08T05:24:48.398Z,99.40
2022-08-08T05:27:18.317Z,99.40
2022-08-08T05:29:50.399Z,99.60
2022-08-08T05:32:24.623Z,99.60
2022-08-08T05:35:04.447Z,99.50
2022-08-08T05:37:52.177Z,99.60
2022-08-08T05:40:27.968Z,99.90
2022-08-08T05:43:03.395Z,99.40
2022-08-08T05:46:03.471Z,99.50
2022-08-08T05:48:34.670Z,99.60
2022-08-08T05:51:13.343Z,99.40
2022-08-08T05:54:26.106Z,99.30
2022-08-08T05:56:42.236Z,99.30
2022-08-08T05:59:57.697Z,99.20
2022-08-08T06:02:43.241Z,98.80
2022-08-08T06:05:34.984Z,99.40
2022-08-08T06:08:10.314Z,99.20
2022-08-08T06:10:58.424Z,99.60
2022-08-08T06:13:36.457Z,99.80
2022-08-08T06:16:15.643Z,99.80
2022-08-08T06:19:03.998Z,99.90
2022-08-08T06:21:51.426Z,99.90
2022-08-08T06:24:31.105Z,99.90
2022-08-08T06:27:06.036Z,99.90
2022-08-08T06:30:00.166Z,99.90
2022-08-08T06:32:42.345Z,99.90
2022-08-08T06:36:08.914Z,99.90
2022-08-08T06:38:11.741Z,99.90
2022-08-08T06:40:48.340Z,99.90
2022-08-08T06:43:19.793Z,99.90
2022-08-08T06:45:59.519Z,99.90
2022-08-08T06:48:27.396Z,99.90
2022-08-08T06:50:58.295Z,99.90
2022-08-08T06:53:38.998Z,99.90
2022-08-08T06:56:09.231Z,99.90
2022-08-08T06:58:39.996Z,99.90
2022-08-08T07:02:18.102Z,99.90
2022-08-08T07:04:40.159Z,99.90
2022-08-08T07:07:11.023Z,99.90
2022-08-08T07:09:59.545Z,99.90
2022-08-08T07:12:41.200Z,99.90
2022-08-08T07:15:23.466Z,99.90
2022-08-08T07:18:35.827Z,99.90
2022-08-08T07:20:58.160Z,99.90
2022-08-08T07:24:02.119Z,99.90
2022-08-08T07:26:35.479Z,99.90
2022-08-08T07:29:08.094Z,99.90
2022-08-08T07:31:41.123Z,99.90
2022-08-08T07:34:10.753Z,99.80
2022-08-08T07:36:50.469Z,99.70
2022-08-08T07:39:29.561Z,99.90
2022-08-08T07:42:05.033Z,99.70
2022-08-08T07:44:40.689Z,99.60
2022-08-08T07:47:12.691Z,99.30
2022-08-08T07:49:46.202Z,99.30
2022-08-08T07:52:26.996Z,99.40
2022-08-08T07:55:05.660Z,99.20
2022-08-08T07:57:59.312Z,99.10
2022-08-08T08:00:38.472Z,99.00
2022-08-08T08:03:23.742Z,99.10
2022-08-08T08:05:55.535Z,98.80
2022-08-08T08:08:56.970Z,98.80
2022-08-08T08:11:34.112Z,98.60
2022-08-08T08:14:47.005Z,98.60
2022-08-08T08:17:20.965Z,98.60
2022-08-08T08:19:55.729Z,98.40
2022-08-08T08:22:31.227Z,98.40
2022-08-08T08:25:07.444Z,98.20
2022-08-08T08:27:37.002Z,98.00
2022-08-08T08:30:05.907Z,98.00
2022-08-08T08:32:41.148Z,97.80
2022-08-08T08:35:21.456Z,97.70
2022-08-08T08:40:48.737Z,97.70
2022-08-08T08:43:26.752Z,97.50
2022-08-08T08:45:57.727Z,97.40
2022-08-08T08:48:26.318Z,97.30
2022-08-08T08:50:56.325Z,97.20
2022-08-08T08:53:54.462Z,97.20
2022-08-08T08:56:24.243Z,97.10
2022-08-08T08:58:58.053Z,96.90
2022-08-08T09:01:43.692Z,96.70
2022-08-08T09:04:32.162Z,96.60
2022-08-08T09:07:15.189Z,96.60
2022-08-08T09:09:55.196Z,99.90
2022-08-08T09:12:31.359Z,96.30
2022-08-08T09:15:01.109Z,96.10
2022-08-08T09:17:41.721Z,95.90
2022-08-08T09:21:59.580Z,95.90
2022-08-08T09:23:11.486Z,95.50
2022-08-08T09:25:58.380Z,95.50
2022-08-08T09:28:38.573Z,95.50
2022-08-08T09:31:20.473Z,95.50
2022-08-08T09:34:14.615Z,94.40
2022-08-08T09:36:51.616Z,94.80
2022-08-08T09:39:44.490Z,94.90
2022-08-08T09:42:21.781Z,94.30
2022-08-08T09:45:08.182Z,94.40
2022-08-08T09:48:09.829Z,94.10
2022-08-08T09:50:32.442Z,94.30
2022-08-08T09:53:14.186Z,94.30
2022-08-08T09:56:04.167Z,94.00
2022-08-08T09:58:45.264Z,93.40
2022-08-08T10:02:03.164Z,93.00
2022-08-08T10:04:13.207Z,93.10
2022-08-08T10:06:44.933Z,93.00
2022-08-08T10:09:13.410Z,92.80
2022-08-08T10:12:26.491Z,92.50
2022-08-08T10:14:39.346Z,90.70
2022-08-08T10:17:57.136Z,91.40
2022-08-08T10:20:00.071Z,91.30
2022-08-08T10:22:30.131Z,91.30
2022-08-08T10:25:04.829Z,90.10
2022-08-08T10:27:42.967Z,91.10
2022-08-08T10:30:16.602Z,90.90
2022-08-08T10:33:00.452Z,90.90
2022-08-08T10:36:08.765Z,91.30
2022-08-08T10:38:19.885Z,91.30
2022-08-08T10:40:53.471Z,91.10
2022-08-08T10:43:23.183Z,91.20
2022-08-08T10:45:56.674Z,91.20
2022-08-08T10:48:56.556Z,90.90
2022-08-08T10:51:30.924Z,90.80
2022-08-08T10:54:02.078Z,90.80
2022-08-08T10:56:34.527Z,90.90
2022-08-08T10:59:09.309Z,90.80
2022-08-08T11:01:39.312Z,90.40
2022-08-08T11:04:10.425Z,90.60
2022-08-08T11:06:41.680Z,90.40
2022-08-08T11:09:21.625Z,90.10
2022-08-08T11:12:06.527Z,90.30
2022-08-08T11:14:57.034Z,90.40
2022-08-08T11:17:58.821Z,90.00
2022-08-08T11:20:18.064Z,90.20
2022-08-08T11:22:54.675Z,99.90
2022-08-08T11:25:53.631Z,88.80
2022-08-08T11:28:18.572Z,89.10
2022-08-08T11:30:52.050Z,88.90
2022-08-08T11:33:53.278Z,89.00
2022-08-08T11:36:15.002Z,88.50
2022-08-08T11:38:55.200Z,87.80
2022-08-08T11:41:32.574Z,88.00
2022-08-08T11:44:02.372Z,88.50
2022-08-08T11:46:32.591Z,88.30
2022-08-08T11:49:07.533Z,88.60
2022-08-08T11:51:50.282Z,87.50
2022-08-08T11:54:44.824Z,87.50
2022-08-08T11:57:36.753Z,85.40
2022-08-08T12:00:10.405Z,86.70
2022-08-08T12:02:51.580Z,85.10
2022-08-08T12:05:22.750Z,87.00
2022-08-08T12:07:55.848Z,87.10
2022-08-08T12:10:26.398Z,86.80
2022-08-08T12:13:05.932Z,86.60
2022-08-08T12:15:41.949Z,85.90
2022-08-08T12:18:13.516Z,86.70
2022-08-08T12:20:41.778Z,85.50
2022-08-08T12:23:13.785Z,84.90
2022-08-08T12:25:52.485Z,85.30
2022-08-08T12:28:20.131Z,85.40
2022-08-08T12:30:50.150Z,84.80
2022-08-08T12:33:37.023Z,84.90
2022-08-08T12:36:16.361Z,82.90
2022-08-08T12:38:55.429Z,83.10
2022-08-08T12:41:35.054Z,82.60
2022-08-08T12:44:30.396Z,82.30
2022-08-08T12:47:01.185Z,82.70
2022-08-08T12:49:43.825Z,82.30
2022-08-08T12:52:28.893Z,81.90
2022-08-08T12:55:09.388Z,81.00
2022-08-08T12:57:49.968Z,80.80
2022-08-08T13:00:33.957Z,81.30
2022-08-08T13:03:07.363Z,80.10
2022-08-08T13:06:03.455Z,81.10
2022-08-08T13:08:22.356Z,81.40
2022-08-08T13:11:02.552Z,81.40
2022-08-08T13:13:35.051Z,82.20
2022-08-08T13:16:25.874Z,81.10
2022-08-08T13:19:01.739Z,80.00
2022-08-08T13:21:58.097Z,80.20
2022-08-08T13:24:40.655Z,79.30
2022-08-08T13:27:15.065Z,79.50
2022-08-08T13:30:03.697Z,79.60
2022-08-08T13:32:37.039Z,78.50
2022-08-08T13:35:11.482Z,78.80
2022-08-08T13:38:06.430Z,78.40
2022-08-08T13:40:36.739Z,77.70
2022-08-08T13:43:09.218Z,77.20
2022-08-08T13:45:37.014Z,76.80
2022-08-08T13:48:13.175Z,76.40
2022-08-08T13:50:51.051Z,74.70
2022-08-08T13:53:33.808Z,75.30
2022-08-08T13:56:11.565Z,73.70
2022-08-08T13:58:57.459Z,75.40
2022-08-08T14:01:41.583Z,70.20
2022-08-08T14:04:25.003Z,71.80
2022-08-08T14:07:03.266Z,69.30
2022-08-08T14:10:04.369Z,68.10
2022-08-08T14:12:29.489Z,69.90
2022-08-08T14:14:57.288Z,69.50
2022-08-08T14:17:57.277Z,71.30
2022-08-08T14:20:15.545Z,71.20
2022-08-08T14:23:21.310Z,71.00
2022-08-08T14:26:10.485Z,69.10
2022-08-08T14:28:49.730Z,69.90
2022-08-08T14:31:23.572Z,68.10
2022-08-08T14:34:22.867Z,68.00
2022-08-08T14:36:51.904Z,66.20
2022-08-08T14:39:24.745Z,67.90
2022-08-08T14:42:03.223Z,67.80
2022-08-08T14:44:35.138Z,66.10
2022-08-08T14:47:16.751Z,67.00
2022-08-08T14:50:06.612Z,68.20
2022-08-08T14:52:48.379Z,68.60
2022-08-08T14:55:22.693Z,67.90
2022-08-08T14:58:12.132Z,68.90
2022-08-08T15:00:45.244Z,68.80
2022-08-08T15:03:17.242Z,68.60
2022-08-08T15:05:53.907Z,68.30
2022-08-08T15:08:33.421Z,67.10
2022-08-08T15:11:04.827Z,67.40
2022-08-08T15:13:35.168Z,67.10
2022-08-08T15:16:12.206Z,66.90
2022-08-08T15:18:50.185Z,65.80
2022-08-08T15:21:20.758Z,65.90
2022-08-08T15:23:51.528Z,65.70
2022-08-08T15:26:20.192Z,65.90
2022-08-08T15:28:50.809Z,65.90
2022-08-08T15:31:49.046Z,65.70
2022-08-08T15:34:18.253Z,66.10
2022-08-08T15:36:56.261Z,66.00
2022-08-08T15:39:23.619Z,64.50
2022-08-08T15:41:54.858Z,65.60
2022-08-08T15:44:22.253Z,65.30
2022-08-08T15:46:50.587Z,65.50
2022-08-08T15:49:21.106Z,65.10
2022-08-08T15:51:50.353Z,65.30
2022-08-08T15:54:38.865Z,65.20
2022-08-08T15:57:09.350Z,65.10
2022-08-08T16:00:26.365Z,65.80
2022-08-08T16:02:30.999Z,66.00
2022-08-08T16:05:00.526Z,66.20
2022-08-08T16:07:50.806Z,66.40
2022-08-08T16:13:11.187Z,66.70
2022-08-08T16:13:28.497Z,66.80
2022-08-08T16:15:59.192Z,66.80
2022-08-08T16:18:33.749Z,66.90
2022-08-08T16:21:01.457Z,67.10
2022-08-08T16:23:32.521Z,67.00
2022-08-08T16:26:03.992Z,66.90
2022-08-08T16:28:35.009Z,66.70
2022-08-08T16:31:07.457Z,66.20
2022-08-08T16:33:38.461Z,66.40
2022-08-08T16:36:15.846Z,66.10
2022-08-08T16:38:53.902Z,66.10
2022-08-08T16:41:23.878Z,66.30
2022-08-08T16:43:53.080Z,66.70
2022-08-08T16:46:44.138Z,67.30
2022-08-08T16:49:08.912Z,67.40
2022-08-08T16:55:03.017Z,68.50
2022-08-08T16:55:03.547Z,68.20
2022-08-08T16:57:23.576Z,68.90
2022-08-08T17:00:08.872Z,69.80
2022-08-08T17:02:38.399Z,70.20
2022-08-08T17:05:08.611Z,71.10
2022-08-08T17:07:40.386Z,71.70
2022-08-08T17:10:10.089Z,72.10
2022-08-08T17:12:41.507Z,73.20
2022-08-08T17:15:20.227Z,73.80
2022-08-08T17:18:02.464Z,73.80
2022-08-08T17:20:39.708Z,74.20
2022-08-08T17:23:17.674Z,74.40
2022-08-08T17:25:58.437Z,74.50
2022-08-08T17:28:35.196Z,74.50
2022-08-08T17:31:39.399Z,74.20
2022-08-08T17:34:36.437Z,74.30
2022-08-08T17:37:03.366Z,74.10
2022-08-08T17:40:03.283Z,74.60
2022-08-08T17:42:19.972Z,74.80
2022-08-08T17:44:50.979Z,74.90
2022-08-08T17:47:24.063Z,74.80
2022-08-08T17:50:00.921Z,74.90
2022-08-08T17:52:34.294Z,75.20
2022-08-08T17:55:05.453Z,75.20
2022-08-08T17:57:37.514Z,75.60
2022-08-08T18:00:19.224Z,75.80
2022-08-08T18:02:52.639Z,76.30
2022-08-08T18:05:48.033Z,76.40
2022-08-08T18:08:38.142Z,76.70
2022-08-08T18:11:14.929Z,77.00
2022-08-08T18:13:45.205Z,95.00
2022-08-08T18:16:17.005Z,77.20
2022-08-08T18:18:55.952Z,77.40
2022-08-08T18:21:59.749Z,77.50
2022-08-08T18:24:19.513Z,77.40
2022-08-08T18:26:54.346Z,77.30
2022-08-08T18:29:33.808Z,77.70
2022-08-08T18:32:07.186Z,78.00
2022-08-08T18:34:36.135Z,78.30
2022-08-08T18:37:08.096Z,78.80
2022-08-08T18:39:38.612Z,78.40
2022-08-08T18:42:15.744Z,78.80
2022-08-08T18:44:55.546Z,78.70
2022-08-08T18:47:25.524Z,79.30
2022-08-08T18:49:58.914Z,79.80
2022-08-08T18:52:30.567Z,80.60
2022-08-08T18:54:59.142Z,81.00
2022-08-08T18:57:31.963Z,81.30
2022-08-08T19:00:09.437Z,81.50
2022-08-08T19:02:48.113Z,81.70
2022-08-08T19:05:16.003Z,82.80
2022-08-08T19:07:51.954Z,82.60
2022-08-08T19:10:19.708Z,83.60
2022-08-08T19:12:53.084Z,83.90
2022-08-08T19:15:26.207Z,84.70
2022-08-08T19:18:31.158Z,85.50
2022-08-08T19:20:52.019Z,85.60
2022-08-08T19:23:21.443Z,86.20
2022-08-08T19:26:19.933Z,86.90
2022-08-08T19:28:36.834Z,87.30
2022-08-08T19:31:09.045Z,88.90
2022-08-08T19:33:51.716Z,90.10
2022-08-08T19:36:25.301Z,89.80
2022-08-08T19:38:58.565Z,90.40
2022-08-08T19:41:29.603Z,90.60
2022-08-08T19:44:03.994Z,91.10
2022-08-08T19:46:40.141Z,91.80
2022-08-08T19:49:09.707Z,91.90
2022-08-08T19:51:41.572Z,91.90
2022-08-08T19:54:11.522Z,92.40
2022-08-08T19:56:41.371Z,92.60
2022-08-08T19:59:10.051Z,99.90
2022-08-08T20:02:02.194Z,93.00
2022-08-08T20:04:28.116Z,92.80
2022-08-08T20:06:57.776Z,93.40
2022-08-08T20:09:32.445Z,94.20
2022-08-08T20:12:08.651Z,93.80
2022-08-08T20:14:41.949Z,94.10
2022-08-08T20:17:09.670Z,94.30
2022-08-08T20:19:43.432Z,99.90
2022-08-08T20:22:20.760Z,94.20
2022-08-08T20:24:53.625Z,94.10
2022-08-08T20:27:21.263Z,94.50
2022-08-08T20:29:55.963Z,94.80
2022-08-08T20:32:29.926Z,94.70
2022-08-08T20:35:01.108Z,95.30
2022-08-08T20:37:46.752Z,95.20
2022-08-08T20:40:33.523Z,95.60
2022-08-08T20:43:16.424Z,95.40
2022-08-08T20:45:57.818Z,96.10
2022-08-08T20:48:30.910Z,95.70
2022-08-08T20:50:58.819Z,96.20
2022-08-08T20:53:59.233Z,99.90
2022-08-08T20:56:14.956Z,95.90
2022-08-08T20:58:47.639Z,99.90
2022-08-08T21:01:20.056Z,96.30
2022-08-08T21:03:59.722Z,96.70
2022-08-08T21:06:52.033Z,96.20
2022-08-08T21:09:16.486Z,96.40
2022-08-08T21:11:51.505Z,96.60
2022-08-08T21:14:33.445Z,96.80
2022-08-08T21:17:06.182Z,96.60
2022-08-08T21:19:45.710Z,96.60
2022-08-08T21:22:14.647Z,96.90
2022-08-08T21:24:52.759Z,96.90
2022-08-08T21:28:05.227Z,97.00
2022-08-08T21:30:19.184Z,97.10
2022-08-08T21:32:51.553Z,97.00
2022-08-08T21:36:14.845Z,97.10
2022-08-08T21:38:16.267Z,97.50
2022-08-08T21:40:56.148Z,97.50
2022-08-08T21:43:31.113Z,97.60
2022-08-08T21:48:03.731Z,97.80
2022-08-08T21:48:58.722Z,97.70
2022-08-08T21:54:32.652Z,98.90
2022-08-08T21:54:54.002Z,98.20
2022-08-08T21:57:04.931Z,98.50
2022-08-08T22:00:01.641Z,98.50
2022-08-08T22:02:23.317Z,98.70
2022-08-08T22:04:56.077Z,99.40
2022-08-08T22:07:39.652Z,99.20
2022-08-08T22:10:18.470Z,99.10
2022-08-08T22:13:18.534Z,99.50
2022-08-08T22:15:58.604Z,99.30
2022-08-08T22:18:32.631Z,99.70
2022-08-08T22:21:11.092Z,99.90
2022-08-08T22:23:49.372Z,99.90
2022-08-08T22:26:29.180Z,99.90
2022-08-08T22:29:14.283Z,99.90
2022-08-08T22:32:02.430Z,99.90
2022-08-08T22:34:39.197Z,99.90
2022-08-08T22:37:27.525Z,99.90
2022-08-08T22:40:01.195Z,99.90
2022-08-08T22:42:31.650Z,99.90
2022-08-08T22:45:02.528Z,99.90
2022-08-08T22:47:34.215Z,99.90
2022-08-08T22:50:09.956Z,99.90
2022-08-08T22:54:30.924Z,99.90
2022-08-08T22:55:59.475Z,99.90
2022-08-08T22:58:34.332Z,99.90
2022-08-08T23:02:03.076Z,99.90
2022-08-08T23:03:56.428Z,99.90
2022-08-08T23:06:27.172Z,99.90
2022-08-08T23:09:00.119Z,99.90
2022-08-08T23:11:30.767Z,99.90
2022-08-08T23:14:18.809Z,99.90
2022-08-08T23:16:54.405Z,99.90
2022-08-08T23:19:30.853Z,99.90
2022-08-08T23:22:04.251Z,99.90
2022-08-08T23:24:41.605Z,99.90
2022-08-08T23:27:37.953Z,99.90
2022-08-08T23:30:03.007Z,99.90
2022-08-08T23:32:31.955Z,99.90
2022-08-08T23:35:00.480Z,99.90
2022-08-08T23:38:00.924Z,99.90
2022-08-08T23:40:15.961Z,99.90
2022-08-08T23:42:45.094Z,99.90
2022-08-08T23:45:13.039Z,99.90
2022-08-08T23:49:03.135Z,99.90
2022-08-08T23:50:30.130Z,99.90
2022-08-08T23:52:59.164Z,99.90
2022-08-08T23:55:33.407Z,99.90
2022-08-08T23:58:09.899Z,99.90
